createdAt,value
2018-02-09T00:00:47.962Z,1009.49
2018-02-09T00:01:47.937Z,1009.5
2018-02-09T00:02:47.906Z,1009.5
2018-02-09T00:03:47.881Z,1009.53
2018-02-09T00:04:47.864Z,1009.53
2018-02-09T00:05:47.830Z,1009.51
2018-02-09T00:06:47.801Z,1009.53
2018-02-09T00:07:47.776Z,1009.47
2018-02-09T00:08:47.748Z,1009.49
2018-02-09T00:09:47.722Z,1009.5
2018-02-09T00:10:47.699Z,1009.52
2018-02-09T00:11:47.669Z,1009.52
2018-02-09T00:12:47.647Z,1009.5
2018-02-09T00:13:47.614Z,1009.46
2018-02-09T00:14:47.594Z,1009.52
2018-02-09T00:15:47.562Z,1009.46
2018-02-09T00:16:47.539Z,1009.5
2018-02-09T00:17:47.559Z,1009.44
2018-02-09T00:18:47.496Z,1009.4
2018-02-09T00:19:47.463Z,1009.41
2018-02-09T00:20:47.430Z,1009.37
2018-02-09T00:21:47.404Z,1009.37
2018-02-09T00:22:47.376Z,1009.35
2018-02-09T00:23:47.351Z,1009.37
2018-02-09T00:24:47.324Z,1009.38
2018-02-09T00:25:47.298Z,1009.33
2018-02-09T00:26:47.276Z,1009.33
2018-02-09T00:27:47.246Z,1009.42
2018-02-09T00:28:47.219Z,1009.28
2018-02-09T00:29:47.194Z,1009.32
2018-02-09T00:30:47.169Z,1009.33
2018-02-09T00:31:47.141Z,1009.29
2018-02-09T00:32:47.113Z,1009.24
2018-02-09T00:33:47.090Z,1009.26
2018-02-09T00:34:47.063Z,1009.22
2018-02-09T00:35:47.035Z,1009.23
2018-02-09T00:36:47.009Z,1009.23
2018-02-09T00:37:46.984Z,1009.23
2018-02-09T00:38:46.959Z,1009.21
2018-02-09T00:39:46.932Z,1009.25
2018-02-09T00:40:46.908Z,1009.21
2018-02-09T00:41:46.879Z,1009.21
2018-02-09T00:42:46.851Z,1009.21
2018-02-09T00:43:46.826Z,1009.2
2018-02-09T00:44:46.800Z,1009.23
2018-02-09T00:45:46.772Z,1009.2
2018-02-09T00:46:46.746Z,1009.18
2018-02-09T00:47:46.718Z,1009.24
2018-02-09T00:48:46.695Z,1009.22
2018-02-09T00:49:46.666Z,1009.21
2018-02-09T00:50:46.639Z,1009.2
2018-02-09T00:51:46.612Z,1009.21
2018-02-09T00:52:46.586Z,1009.21
2018-02-09T00:53:46.561Z,1009.19
2018-02-09T00:54:46.533Z,1009.18
2018-02-09T00:55:46.512Z,1009.17
2018-02-09T00:56:46.483Z,1009.14
2018-02-09T00:57:46.454Z,1009.17
2018-02-09T00:58:46.430Z,1009.14
2018-02-09T00:59:46.404Z,1009.13
2018-02-09T01:00:46.375Z,1009.13
2018-02-09T01:01:46.351Z,1009.18
2018-02-09T01:02:46.327Z,1009.18
2018-02-09T01:03:46.298Z,1009.17
2018-02-09T01:04:46.273Z,1009.23
2018-02-09T01:05:46.247Z,1009.17
2018-02-09T01:06:46.222Z,1009.21
2018-02-09T01:07:46.195Z,1009.21
2018-02-09T01:08:46.214Z,1009.2
2018-02-09T01:09:46.341Z,1009.15
2018-02-09T01:10:46.117Z,1009.2
2018-02-09T01:11:46.089Z,1009.17
2018-02-09T01:12:46.061Z,1009.23
2018-02-09T01:13:46.033Z,1009.2
2018-02-09T01:14:46.010Z,1009.17
2018-02-09T01:15:45.986Z,1009.2
2018-02-09T01:16:45.954Z,1009.21
2018-02-09T01:17:45.929Z,1009.17
2018-02-09T01:18:45.901Z,1009.14
2018-02-09T01:19:45.877Z,1009.16
2018-02-09T01:20:45.849Z,1009.11
2018-02-09T01:21:45.823Z,1009.15
2018-02-09T01:22:45.805Z,1009.11
2018-02-09T01:23:45.769Z,1009.1
2018-02-09T01:24:45.742Z,1009.13
2018-02-09T01:25:45.716Z,1009.12
2018-02-09T01:26:45.692Z,1009.1
2018-02-09T01:27:45.662Z,1009.09
2018-02-09T01:28:45.640Z,1009.08
2018-02-09T01:29:45.611Z,1009.06
2018-02-09T01:30:45.584Z,1009.08
2018-02-09T01:31:45.558Z,1009.08
2018-02-09T01:32:45.534Z,1009.05
2018-02-09T01:33:45.511Z,1009.04
2018-02-09T01:34:45.481Z,1009.08
2018-02-09T01:35:45.453Z,1009.06
2018-02-09T01:36:45.429Z,1009.02
2018-02-09T01:37:45.400Z,1009.04
2018-02-09T01:38:45.376Z,1008.99
2018-02-09T01:39:45.348Z,1008.99
2018-02-09T01:40:45.324Z,1008.97
2018-02-09T01:41:45.296Z,1008.97
2018-02-09T01:42:45.267Z,1008.99
2018-02-09T01:43:45.249Z,1008.96
2018-02-09T01:44:45.215Z,1008.95
2018-02-09T01:45:45.188Z,1008.93
2018-02-09T01:46:45.161Z,1008.88
2018-02-09T01:47:45.137Z,1008.85
2018-02-09T01:48:45.112Z,1008.88
2018-02-09T01:49:45.085Z,1008.87
2018-02-09T01:50:45.058Z,1008.82
2018-02-09T01:51:45.031Z,1008.84
2018-02-09T01:52:45.006Z,1008.82
2018-02-09T01:53:44.978Z,1008.82
2018-02-09T01:54:44.951Z,1008.8
2018-02-09T01:55:44.924Z,1008.79
2018-02-09T01:56:44.897Z,1008.81
2018-02-09T01:57:44.871Z,1008.78
2018-02-09T01:58:44.848Z,1008.73
2018-02-09T01:59:44.819Z,1008.73
2018-02-09T02:00:44.792Z,1008.79
2018-02-09T02:01:44.766Z,1008.76
2018-02-09T02:02:44.739Z,1008.74
2018-02-09T02:03:44.714Z,1008.74
2018-02-09T02:04:44.686Z,1008.75
2018-02-09T02:05:44.660Z,1008.71
2018-02-09T02:06:44.633Z,1008.76
2018-02-09T02:07:44.609Z,1008.77
2018-02-09T02:08:44.584Z,1008.75
2018-02-09T02:09:44.606Z,1008.76
2018-02-09T02:10:44.528Z,1008.71
2018-02-09T02:11:44.503Z,1008.7
2018-02-09T02:12:44.475Z,1008.72
2018-02-09T02:13:44.450Z,1008.7
2018-02-09T02:14:44.425Z,1008.71
2018-02-09T02:15:44.396Z,1008.68
2018-02-09T02:16:44.378Z,1008.69
2018-02-09T02:17:44.346Z,1008.7
2018-02-09T02:18:44.316Z,1008.64
2018-02-09T02:19:44.290Z,1008.65
2018-02-09T02:20:44.264Z,1008.69
2018-02-09T02:21:44.237Z,1008.65
2018-02-09T02:22:44.211Z,1008.65
2018-02-09T02:23:44.188Z,1008.65
2018-02-09T02:24:44.207Z,1008.64
2018-02-09T02:25:44.132Z,1008.68
2018-02-09T02:26:44.104Z,1008.68
2018-02-09T02:27:44.079Z,1008.65
2018-02-09T02:28:44.053Z,1008.65
2018-02-09T02:29:44.025Z,1008.63
2018-02-09T02:30:44.003Z,1008.59
2018-02-09T02:31:43.974Z,1008.58
2018-02-09T02:32:43.946Z,1008.6
2018-02-09T02:33:43.921Z,1008.56
2018-02-09T02:34:43.894Z,1008.59
2018-02-09T02:35:43.870Z,1008.58
2018-02-09T02:36:43.839Z,1008.56
2018-02-09T02:37:43.814Z,1008.59
2018-02-09T02:38:43.788Z,1008.52
2018-02-09T02:39:43.776Z,1008.5
2018-02-09T02:40:43.736Z,1008.52
2018-02-09T02:41:43.708Z,1008.5
2018-02-09T02:42:43.682Z,1008.49
2018-02-09T02:43:43.658Z,1008.48
2018-02-09T02:44:43.631Z,1008.48
2018-02-09T02:45:43.604Z,1008.46
2018-02-09T02:46:43.578Z,1008.46
2018-02-09T02:47:43.549Z,1008.45
2018-02-09T02:48:43.524Z,1008.43
2018-02-09T02:49:43.495Z,1008.47
2018-02-09T02:50:43.475Z,1008.44
2018-02-09T02:51:43.445Z,1008.4
2018-02-09T02:52:43.419Z,1008.43
2018-02-09T02:53:43.391Z,1008.37
2018-02-09T02:54:43.363Z,1008.37
2018-02-09T02:55:43.342Z,1008.34
2018-02-09T02:56:43.315Z,1008.34
2018-02-09T02:57:43.286Z,1008.32
2018-02-09T02:58:43.257Z,1008.31
2018-02-09T02:59:43.232Z,1008.31
2018-02-09T03:00:43.204Z,1008.27
2018-02-09T03:01:43.177Z,1008.24
2018-02-09T03:02:43.153Z,1008.3
2018-02-09T03:03:43.124Z,1008.26
2018-02-09T03:04:43.099Z,1008.25
2018-02-09T03:05:43.072Z,1008.23
2018-02-09T03:06:43.046Z,1008.26
2018-02-09T03:07:43.018Z,1008.25
2018-02-09T03:08:42.994Z,1008.25
2018-02-09T03:09:43.167Z,1008.22
2018-02-09T03:10:42.938Z,1008.2
2018-02-09T03:11:42.914Z,1008.15
2018-02-09T03:12:42.887Z,1008.17
2018-02-09T03:13:42.859Z,1008.18
2018-02-09T03:14:42.835Z,1008.19
2018-02-09T03:15:42.807Z,1008.16
2018-02-09T03:16:42.777Z,1008.11
2018-02-09T03:17:42.752Z,1008.09
2018-02-09T03:18:42.726Z,1008.06
2018-02-09T03:19:42.699Z,1008.03
2018-02-09T03:20:42.672Z,1008.02
2018-02-09T03:21:42.645Z,1008.06
2018-02-09T03:22:42.619Z,1008.01
2018-02-09T03:23:42.592Z,1007.98
2018-02-09T03:24:42.566Z,1007.96
2018-02-09T03:25:42.537Z,1007.98
2018-02-09T03:26:42.514Z,1007.97
2018-02-09T03:27:42.484Z,1007.92
2018-02-09T03:28:42.461Z,1007.93
2018-02-09T03:29:42.631Z,1007.88
2018-02-09T03:30:42.412Z,1007.88
2018-02-09T03:31:42.376Z,1007.92
2018-02-09T03:32:42.350Z,1007.9
2018-02-09T03:33:42.326Z,1007.87
2018-02-09T03:34:42.297Z,1007.82
2018-02-09T03:35:42.272Z,1007.84
2018-02-09T03:36:42.243Z,1007.87
2018-02-09T03:37:42.215Z,1007.82
2018-02-09T03:38:42.188Z,1007.85
2018-02-09T03:39:42.163Z,1007.83
2018-02-09T03:40:42.135Z,1007.81
2018-02-09T03:41:42.108Z,1007.79
2018-02-09T03:42:42.086Z,1007.79
2018-02-09T03:43:42.057Z,1007.76
2018-02-09T03:44:42.030Z,1007.75
2018-02-09T03:45:42.002Z,1007.73
2018-02-09T03:46:41.978Z,1007.75
2018-02-09T03:47:41.949Z,1007.76
2018-02-09T03:48:41.926Z,1007.7
2018-02-09T03:49:41.896Z,1007.74
2018-02-09T03:50:41.919Z,1007.79
2018-02-09T03:51:41.842Z,1007.72
2018-02-09T03:52:41.815Z,1007.77
2018-02-09T03:53:41.787Z,1007.74
2018-02-09T03:54:41.767Z,1007.73
2018-02-09T03:55:41.735Z,1007.7
2018-02-09T03:56:41.708Z,1007.71
2018-02-09T03:57:41.680Z,1007.69
2018-02-09T03:58:41.654Z,1007.71
2018-02-09T03:59:41.626Z,1007.71
2018-02-09T04:00:41.599Z,1007.69
2018-02-09T04:01:41.574Z,1007.66
2018-02-09T04:02:41.548Z,1007.66
2018-02-09T04:03:41.520Z,1007.64
2018-02-09T04:04:41.495Z,1007.64
2018-02-09T04:05:41.467Z,1007.63
2018-02-09T04:06:41.439Z,1007.65
2018-02-09T04:07:41.412Z,1007.65
2018-02-09T04:08:41.386Z,1007.57
2018-02-09T04:09:41.359Z,1007.57
2018-02-09T04:10:41.332Z,1007.56
2018-02-09T04:11:41.306Z,1007.54
2018-02-09T04:12:41.279Z,1007.53
2018-02-09T04:13:41.253Z,1007.57
2018-02-09T04:14:41.233Z,1007.56
2018-02-09T04:15:41.208Z,1007.56
2018-02-09T04:16:41.170Z,1007.54
2018-02-09T04:17:41.144Z,1007.56
2018-02-09T04:18:41.116Z,1007.49
2018-02-09T04:19:41.090Z,1007.47
2018-02-09T04:20:41.064Z,1007.48
2018-02-09T04:21:41.040Z,1007.47
2018-02-09T04:22:41.012Z,1007.45
2018-02-09T04:23:40.983Z,1007.45
2018-02-09T04:24:40.956Z,1007.43
2018-02-09T04:25:40.927Z,1007.5
2018-02-09T04:26:40.901Z,1007.47
2018-02-09T04:27:40.876Z,1007.42
2018-02-09T04:28:40.849Z,1007.5
2018-02-09T04:29:40.824Z,1007.4
2018-02-09T04:30:40.794Z,1007.47
2018-02-09T04:31:40.767Z,1007.47
2018-02-09T04:32:40.743Z,1007.45
2018-02-09T04:33:40.711Z,1007.47
2018-02-09T04:34:40.685Z,1007.45
2018-02-09T04:35:40.660Z,1007.49
2018-02-09T04:36:40.632Z,1007.5
2018-02-09T04:37:40.645Z,1007.49
2018-02-09T04:38:40.579Z,1007.48
2018-02-09T04:39:40.563Z,1007.44
2018-02-09T04:40:40.522Z,1007.46
2018-02-09T04:41:40.497Z,1007.51
2018-02-09T04:42:40.470Z,1007.52
2018-02-09T04:43:40.444Z,1007.53
2018-02-09T04:44:40.416Z,1007.51
2018-02-09T04:45:40.390Z,1007.55
2018-02-09T04:46:40.362Z,1007.53
2018-02-09T04:47:40.338Z,1007.51
2018-02-09T04:48:40.310Z,1007.53
2018-02-09T04:49:40.285Z,1007.5
2018-02-09T04:50:40.256Z,1007.48
2018-02-09T04:51:40.228Z,1007.44
2018-02-09T04:52:40.200Z,1007.41
2018-02-09T04:53:40.175Z,1007.46
2018-02-09T04:54:40.149Z,1007.43
2018-02-09T04:55:40.122Z,1007.42
2018-02-09T04:56:40.095Z,1007.43
2018-02-09T04:57:40.069Z,1007.46
2018-02-09T04:58:40.042Z,1007.44
2018-02-09T04:59:40.015Z,1007.38
2018-02-09T05:00:39.988Z,1007.4
2018-02-09T05:01:39.964Z,1007.38
2018-02-09T05:02:39.937Z,1007.36
2018-02-09T05:03:39.909Z,1007.34
2018-02-09T05:04:39.887Z,1007.31
2018-02-09T05:05:39.862Z,1007.35
2018-02-09T05:06:39.830Z,1007.39
2018-02-09T05:07:39.802Z,1007.38
2018-02-09T05:08:39.777Z,1007.39
2018-02-09T05:09:39.952Z,1007.38
2018-02-09T05:10:39.724Z,1007.37
2018-02-09T05:11:39.748Z,1007.37
2018-02-09T05:12:39.673Z,1007.38
2018-02-09T05:13:39.647Z,1007.33
2018-02-09T05:14:39.674Z,1007.3
2018-02-09T05:15:39.592Z,1007.31
2018-02-09T05:16:39.568Z,1007.32
2018-02-09T05:17:39.541Z,1007.26
2018-02-09T05:18:39.516Z,1007.29
2018-02-09T05:19:39.489Z,1007.28
2018-02-09T05:20:39.466Z,1007.3
2018-02-09T05:21:39.486Z,1007.27
2018-02-09T05:22:39.412Z,1007.25
2018-02-09T05:23:39.385Z,1007.25
2018-02-09T05:24:39.358Z,1007.21
2018-02-09T05:25:39.332Z,1007.23
2018-02-09T05:26:39.309Z,1007.2
2018-02-09T05:27:39.279Z,1007.18
2018-02-09T05:28:39.254Z,1007.2
2018-02-09T05:29:39.228Z,1007.18
2018-02-09T05:30:39.203Z,1007.15
2018-02-09T05:31:39.178Z,1007.18
2018-02-09T05:32:39.149Z,1007.18
2018-02-09T05:33:39.124Z,1007.21
2018-02-09T05:34:39.098Z,1007.17
2018-02-09T05:35:39.074Z,1007.18
2018-02-09T05:36:39.046Z,1007.16
2018-02-09T05:37:39.027Z,1007.11
2018-02-09T05:38:38.996Z,1007.11
2018-02-09T05:39:38.969Z,1007.12
2018-02-09T05:40:38.942Z,1007.1
2018-02-09T05:41:38.916Z,1007.07
2018-02-09T05:42:38.891Z,1007.08
2018-02-09T05:43:38.863Z,1007.08
2018-02-09T05:44:38.840Z,1007.07
2018-02-09T05:45:38.814Z,1007.09
2018-02-09T05:46:38.787Z,1007.07
2018-02-09T05:47:38.763Z,1007.06
2018-02-09T05:48:38.735Z,1007.05
2018-02-09T05:49:38.714Z,1007.01
2018-02-09T05:50:38.683Z,1006.98
2018-02-09T05:51:38.660Z,1006.98
2018-02-09T05:52:38.637Z,1006.99
2018-02-09T05:53:38.604Z,1006.97
2018-02-09T05:54:38.580Z,1006.97
2018-02-09T05:55:38.552Z,1006.95
2018-02-09T05:56:38.527Z,1006.95
2018-02-09T05:57:38.501Z,1006.96
2018-02-09T05:58:38.480Z,1006.95
2018-02-09T05:59:38.449Z,1006.94
2018-02-09T06:00:38.426Z,1006.92
2018-02-09T06:01:38.397Z,1006.91
2018-02-09T06:02:38.373Z,1006.93
2018-02-09T06:03:38.346Z,1006.93
2018-02-09T06:04:38.317Z,1006.91
2018-02-09T06:05:38.292Z,1006.92
2018-02-09T06:06:38.267Z,1006.89
2018-02-09T06:07:38.241Z,1006.89
2018-02-09T06:08:38.216Z,1006.89
2018-02-09T06:09:38.188Z,1006.84
2018-02-09T06:10:38.162Z,1006.86
2018-02-09T06:11:38.137Z,1006.87
2018-02-09T06:12:38.114Z,1006.84
2018-02-09T06:13:38.093Z,1006.85
2018-02-09T06:14:38.059Z,1006.81
2018-02-09T06:15:38.030Z,1006.77
2018-02-09T06:16:38.005Z,1006.79
2018-02-09T06:17:37.978Z,1006.83
2018-02-09T06:18:37.954Z,1006.78
2018-02-09T06:19:37.927Z,1006.84
2018-02-09T06:20:37.900Z,1006.82
2018-02-09T06:21:37.874Z,1006.84
2018-02-09T06:22:37.898Z,1006.8
2018-02-09T06:23:37.823Z,1006.82
2018-02-09T06:24:37.796Z,1006.81
2018-02-09T06:25:37.768Z,1006.82
2018-02-09T06:26:37.743Z,1006.78
2018-02-09T06:27:37.716Z,1006.78
2018-02-09T06:28:37.689Z,1006.78
2018-02-09T06:29:37.666Z,1006.74
2018-02-09T06:30:37.636Z,1006.76
2018-02-09T06:31:37.611Z,1006.78
2018-02-09T06:32:37.634Z,1006.78
2018-02-09T06:33:37.559Z,1006.78
2018-02-09T06:34:37.534Z,1006.79
2018-02-09T06:35:37.505Z,1006.77
2018-02-09T06:36:37.482Z,1006.77
2018-02-09T06:37:37.453Z,1006.76
2018-02-09T06:38:37.429Z,1006.8
2018-02-09T06:39:37.399Z,1006.78
2018-02-09T06:40:37.378Z,1006.77
2018-02-09T06:41:37.351Z,1006.78
2018-02-09T06:42:37.321Z,1006.77
2018-02-09T06:43:37.295Z,1006.78
2018-02-09T06:44:37.271Z,1006.79
2018-02-09T06:45:37.246Z,1006.77
2018-02-09T06:46:37.215Z,1006.79
2018-02-09T06:47:37.191Z,1006.79
2018-02-09T06:48:37.164Z,1006.78
2018-02-09T06:49:37.137Z,1006.8
2018-02-09T06:50:37.110Z,1006.79
2018-02-09T06:51:37.083Z,1006.79
2018-02-09T06:52:37.069Z,1006.79
2018-02-09T06:53:37.032Z,1006.77
2018-02-09T06:54:37.010Z,1006.78
2018-02-09T06:55:36.980Z,1006.76
2018-02-09T06:56:36.953Z,1006.77
2018-02-09T06:57:36.935Z,1006.76
2018-02-09T06:58:36.901Z,1006.78
2018-02-09T06:59:36.874Z,1006.78
2018-02-09T07:00:36.849Z,1006.78
2018-02-09T07:01:36.821Z,1006.76
2018-02-09T07:02:36.794Z,1006.8
2018-02-09T07:03:36.769Z,1006.78
2018-02-09T07:04:36.741Z,1006.76
2018-02-09T07:05:36.715Z,1006.76
2018-02-09T07:06:36.689Z,1006.78
2018-02-09T07:07:36.665Z,1006.69
2018-02-09T07:08:36.640Z,1006.7
2018-02-09T07:09:36.812Z,1006.71
2018-02-09T07:10:36.583Z,1006.7
2018-02-09T07:11:36.557Z,1006.68
2018-02-09T07:12:36.536Z,1006.64
2018-02-09T07:13:36.504Z,1006.61
2018-02-09T07:14:36.479Z,1006.64
2018-02-09T07:15:36.452Z,1006.64
2018-02-09T07:16:36.430Z,1006.56
2018-02-09T07:17:36.400Z,1006.58
2018-02-09T07:18:36.373Z,1006.61
2018-02-09T07:19:36.348Z,1006.56
2018-02-09T07:20:36.371Z,1006.55
2018-02-09T07:21:36.302Z,1006.56
2018-02-09T07:22:36.268Z,1006.51
2018-02-09T07:23:36.244Z,1006.54
2018-02-09T07:24:36.215Z,1006.49
2018-02-09T07:25:36.191Z,1006.53
2018-02-09T07:26:36.167Z,1006.46
2018-02-09T07:27:36.178Z,1006.5
2018-02-09T07:28:36.114Z,1006.48
2018-02-09T07:29:36.085Z,1006.47
2018-02-09T07:30:36.064Z,1006.49
2018-02-09T07:31:36.037Z,1006.5
2018-02-09T07:32:36.008Z,1006.5
2018-02-09T07:33:35.989Z,1006.48
2018-02-09T07:34:35.958Z,1006.46
2018-02-09T07:35:35.929Z,1006.52
2018-02-09T07:36:35.913Z,1006.46
2018-02-09T07:37:35.879Z,1006.46
2018-02-09T07:38:35.852Z,1006.43
2018-02-09T07:39:35.826Z,1006.43
2018-02-09T07:40:35.859Z,1006.47
2018-02-09T07:41:35.787Z,1006.43
2018-02-09T07:42:35.758Z,1006.44
2018-02-09T07:43:35.722Z,1006.42
2018-02-09T07:44:35.696Z,1006.43
2018-02-09T07:45:35.724Z,1006.42
2018-02-09T07:46:35.644Z,1006.45
2018-02-09T07:47:35.618Z,1006.44
2018-02-09T07:48:35.594Z,1006.45
2018-02-09T07:49:35.567Z,1006.42
2018-02-09T07:50:35.542Z,1006.37
2018-02-09T07:51:35.518Z,1006.36
2018-02-09T07:52:35.490Z,1006.41
2018-02-09T07:53:35.465Z,1006.38
2018-02-09T07:54:35.437Z,1006.39
2018-02-09T07:55:35.414Z,1006.39
2018-02-09T07:56:35.390Z,1006.43
2018-02-09T07:57:35.362Z,1006.41
2018-02-09T07:58:35.336Z,1006.37
2018-02-09T07:59:35.310Z,1006.37
2018-02-09T08:00:35.288Z,1006.34
2018-02-09T08:01:35.258Z,1006.34
2018-02-09T08:02:35.231Z,1006.33
2018-02-09T08:03:35.205Z,1006.3
2018-02-09T08:04:35.181Z,1006.27
2018-02-09T08:05:35.154Z,1006.28
2018-02-09T08:06:35.128Z,1006.29
2018-02-09T08:07:35.106Z,1006.32
2018-02-09T08:08:35.075Z,1006.29
2018-02-09T08:09:35.053Z,1006.25
2018-02-09T08:10:35.025Z,1006.27
2018-02-09T08:11:34.999Z,1006.27
2018-02-09T08:12:34.979Z,1006.25
2018-02-09T08:13:34.947Z,1006.3
2018-02-09T08:14:34.970Z,1006.26
2018-02-09T08:15:34.904Z,1006.27
2018-02-09T08:16:34.870Z,1006.24
2018-02-09T08:17:34.844Z,1006.25
2018-02-09T08:18:35.026Z,1006.25
2018-02-09T08:19:34.793Z,1006.23
2018-02-09T08:20:34.769Z,1006.21
2018-02-09T08:21:34.741Z,1006.22
2018-02-09T08:22:34.715Z,1006.23
2018-02-09T08:23:34.691Z,1006.24
2018-02-09T08:24:34.716Z,1006.19
2018-02-09T08:25:34.638Z,1006.21
2018-02-09T08:26:34.615Z,1006.26
2018-02-09T08:27:34.587Z,1006.21
2018-02-09T08:28:34.562Z,1006.21
2018-02-09T08:29:34.537Z,1006.17
2018-02-09T08:30:34.513Z,1006.14
2018-02-09T08:31:34.484Z,1006.14
2018-02-09T08:32:34.458Z,1006.12
2018-02-09T08:33:34.435Z,1006.15
2018-02-09T08:34:34.406Z,1006.15
2018-02-09T08:35:34.381Z,1006.11
2018-02-09T08:36:34.356Z,1006.14
2018-02-09T08:37:34.330Z,1006.11
2018-02-09T08:38:34.304Z,1006.12
2018-02-09T08:39:34.331Z,1006.12
2018-02-09T08:40:34.254Z,1006.12
2018-02-09T08:41:34.229Z,1006.13
2018-02-09T08:42:34.203Z,1006.09
2018-02-09T08:43:34.184Z,1006.08
2018-02-09T08:44:34.151Z,1006.11
2018-02-09T08:45:34.126Z,1006.08
2018-02-09T08:46:34.101Z,1006.06
2018-02-09T08:47:34.079Z,1006.11
2018-02-09T08:48:34.049Z,1006.12
2018-02-09T08:49:34.033Z,1006.11
2018-02-09T08:50:34.004Z,1006.09
2018-02-09T08:51:33.977Z,1006.1
2018-02-09T08:52:33.949Z,1006.09
2018-02-09T08:53:33.924Z,1006.13
2018-02-09T08:54:33.899Z,1006.09
2018-02-09T08:55:33.873Z,1006.09
2018-02-09T08:56:33.847Z,1006.09
2018-02-09T08:57:33.825Z,1006.11
2018-02-09T08:58:33.801Z,1006.09
2018-02-09T08:59:33.771Z,1006.03
2018-02-09T09:00:33.748Z,1006.05
2018-02-09T09:01:33.725Z,1006.05
2018-02-09T09:02:33.698Z,1006.05
2018-02-09T09:03:33.671Z,1006.09
2018-02-09T09:04:33.647Z,1006.07
2018-02-09T09:05:33.622Z,1006.06
2018-02-09T09:06:33.601Z,1006.13
2018-02-09T09:07:33.573Z,1006.05
2018-02-09T09:08:33.548Z,1006.01
2018-02-09T09:09:33.526Z,1006.03
2018-02-09T09:10:33.500Z,1005.98
2018-02-09T09:11:33.477Z,1005.99
2018-02-09T09:12:33.452Z,1006
2018-02-09T09:13:33.433Z,1005.96
2018-02-09T09:14:33.408Z,1005.92
2018-02-09T09:15:33.383Z,1005.93
2018-02-09T09:16:33.360Z,1005.88
2018-02-09T09:17:33.337Z,1005.87
2018-02-09T09:18:33.313Z,1005.87
2018-02-09T09:19:33.291Z,1005.83
2018-02-09T09:20:33.268Z,1005.85
2018-02-09T09:21:33.246Z,1005.83
2018-02-09T09:22:33.222Z,1005.8
2018-02-09T09:23:33.200Z,1005.84
2018-02-09T09:24:33.179Z,1005.85
2018-02-09T09:25:33.156Z,1005.85
2018-02-09T09:26:33.131Z,1005.83
2018-02-09T09:27:33.110Z,1005.85
2018-02-09T09:28:33.087Z,1005.84
2018-02-09T09:29:33.068Z,1005.85
2018-02-09T09:30:33.040Z,1005.86
2018-02-09T09:31:33.020Z,1005.88
2018-02-09T09:32:33.001Z,1005.84
2018-02-09T09:33:32.976Z,1005.8
2018-02-09T09:34:32.997Z,1005.89
2018-02-09T09:35:32.988Z,1005.81
2018-02-09T09:36:32.911Z,1005.82
2018-02-09T09:37:32.892Z,1005.81
2018-02-09T09:38:32.878Z,1005.83
2018-02-09T09:39:32.848Z,1005.82
2018-02-09T09:40:32.827Z,1005.75
2018-02-09T09:41:32.807Z,1005.75
2018-02-09T09:42:32.790Z,1005.72
2018-02-09T09:43:32.770Z,1005.73
2018-02-09T09:44:32.742Z,1005.78
2018-02-09T09:45:32.721Z,1005.72
2018-02-09T09:46:32.701Z,1005.71
2018-02-09T09:47:32.678Z,1005.77
2018-02-09T09:48:32.659Z,1005.75
2018-02-09T09:49:32.637Z,1005.75
2018-02-09T09:50:32.666Z,1005.71
2018-02-09T09:51:32.594Z,1005.76
2018-02-09T09:52:32.572Z,1005.73
2018-02-09T09:53:32.552Z,1005.76
2018-02-09T09:54:32.528Z,1005.74
2018-02-09T09:55:32.508Z,1005.76
2018-02-09T09:56:32.485Z,1005.78
2018-02-09T09:57:32.464Z,1005.74
2018-02-09T09:58:32.449Z,1005.72
2018-02-09T09:59:32.422Z,1005.71
2018-02-09T10:00:32.402Z,1005.74
2018-02-09T10:01:32.379Z,1005.7
2018-02-09T10:02:32.359Z,1005.64
2018-02-09T10:03:32.339Z,1005.68
2018-02-09T10:04:32.318Z,1005.7
2018-02-09T10:05:32.298Z,1005.73
2018-02-09T10:06:32.280Z,1005.69
2018-02-09T10:07:32.254Z,1005.65
2018-02-09T10:08:32.237Z,1005.67
2018-02-09T10:09:32.212Z,1005.65
2018-02-09T10:10:32.190Z,1005.68
2018-02-09T10:11:32.169Z,1005.71
2018-02-09T10:12:32.152Z,1005.67
2018-02-09T10:13:32.129Z,1005.72
2018-02-09T10:14:32.110Z,1005.68
2018-02-09T10:15:32.084Z,1005.69
2018-02-09T10:16:32.062Z,1005.71
2018-02-09T10:17:32.245Z,1005.66
2018-02-09T10:18:32.023Z,1005.64
2018-02-09T10:19:32.004Z,1005.65
2018-02-09T10:20:31.983Z,1005.68
2018-02-09T10:21:31.963Z,1005.69
2018-02-09T10:22:31.943Z,1005.64
2018-02-09T10:23:31.922Z,1005.65
2018-02-09T10:24:31.903Z,1005.68
2018-02-09T10:25:31.882Z,1005.66
2018-02-09T10:26:31.864Z,1005.65
2018-02-09T10:27:31.845Z,1005.62
2018-02-09T10:28:31.826Z,1005.69
2018-02-09T10:29:31.809Z,1005.65
2018-02-09T10:30:31.789Z,1005.66
2018-02-09T10:31:31.770Z,1005.68
2018-02-09T10:32:31.763Z,1005.67
2018-02-09T10:33:31.730Z,1005.65
2018-02-09T10:34:31.713Z,1005.61
2018-02-09T10:35:31.697Z,1005.65
2018-02-09T10:36:31.676Z,1005.61
2018-02-09T10:37:31.659Z,1005.62
2018-02-09T10:38:31.638Z,1005.57
2018-02-09T10:39:31.620Z,1005.57
2018-02-09T10:40:31.608Z,1005.55
2018-02-09T10:41:31.585Z,1005.55
2018-02-09T10:42:31.566Z,1005.5
2018-02-09T10:43:31.549Z,1005.55
2018-02-09T10:44:31.532Z,1005.47
2018-02-09T10:45:31.513Z,1005.51
2018-02-09T10:46:31.496Z,1005.49
2018-02-09T10:47:31.484Z,1005.46
2018-02-09T10:48:31.462Z,1005.46
2018-02-09T10:49:31.441Z,1005.46
2018-02-09T10:50:31.427Z,1005.41
2018-02-09T10:51:31.407Z,1005.38
2018-02-09T10:52:31.387Z,1005.38
2018-02-09T10:53:31.366Z,1005.36
2018-02-09T10:54:31.353Z,1005.32
2018-02-09T10:55:31.333Z,1005.37
2018-02-09T10:56:31.322Z,1005.36
2018-02-09T10:57:31.298Z,1005.35
2018-02-09T10:58:31.277Z,1005.33
2018-02-09T10:59:31.260Z,1005.32
2018-02-09T11:00:31.237Z,1005.34
2018-02-09T11:01:31.269Z,1005.31
2018-02-09T11:02:31.200Z,1005.29
2018-02-09T11:03:31.182Z,1005.32
2018-02-09T11:04:31.164Z,1005.28
2018-02-09T11:05:31.144Z,1005.28
2018-02-09T11:06:31.126Z,1005.28
2018-02-09T11:07:31.107Z,1005.28
2018-02-09T11:08:31.089Z,1005.33
2018-02-09T11:09:31.077Z,1005.25
2018-02-09T11:10:31.256Z,1005.28
2018-02-09T11:11:31.034Z,1005.28
2018-02-09T11:12:31.016Z,1005.27
2018-02-09T11:13:31.002Z,1005.28
2018-02-09T11:14:30.985Z,1005.28
2018-02-09T11:15:30.963Z,1005.29
2018-02-09T11:16:30.947Z,1005.3
2018-02-09T11:17:30.930Z,1005.27
2018-02-09T11:18:30.917Z,1005.31
2018-02-09T11:19:30.896Z,1005.29
2018-02-09T11:20:30.879Z,1005.29
2018-02-09T11:21:30.864Z,1005.27
2018-02-09T11:22:30.844Z,1005.32
2018-02-09T11:23:30.877Z,1005.29
2018-02-09T11:24:30.810Z,1005.3
2018-02-09T11:25:30.795Z,1005.28
2018-02-09T11:26:30.776Z,1005.26
2018-02-09T11:27:30.760Z,1005.3
2018-02-09T11:28:30.748Z,1005.3
2018-02-09T11:29:30.728Z,1005.29
2018-02-09T11:30:30.708Z,1005.24
2018-02-09T11:31:30.695Z,1005.24
2018-02-09T11:32:30.677Z,1005.25
2018-02-09T11:33:30.661Z,1005.25
2018-02-09T11:34:30.646Z,1005.24
2018-02-09T11:35:30.629Z,1005.22
2018-02-09T11:36:30.610Z,1005.24
2018-02-09T11:37:30.594Z,1005.2
2018-02-09T11:38:30.589Z,1005.17
2018-02-09T11:39:30.562Z,1005.18
2018-02-09T11:40:30.546Z,1005.18
2018-02-09T11:41:30.527Z,1005.15
2018-02-09T11:42:30.510Z,1005.11
2018-02-09T11:43:30.536Z,1005.15
2018-02-09T11:44:30.475Z,1005.15
2018-02-09T11:45:30.461Z,1005.16
2018-02-09T11:46:30.446Z,1005.14
2018-02-09T11:47:30.427Z,1005.15
2018-02-09T11:48:30.414Z,1005.12
2018-02-09T11:49:30.421Z,1005.16
2018-02-09T11:50:30.388Z,1005.15
2018-02-09T11:51:30.360Z,1005.1
2018-02-09T11:52:30.344Z,1005.13
2018-02-09T11:53:30.328Z,1005.09
2018-02-09T11:54:30.310Z,1005.1
2018-02-09T11:55:30.296Z,1005.1
2018-02-09T11:56:30.276Z,1005.08
2018-02-09T11:57:30.260Z,1005.09
2018-02-09T11:58:30.241Z,1005.08
2018-02-09T11:59:30.222Z,1005.09
2018-02-09T12:00:30.206Z,1005.09
2018-02-09T12:01:30.187Z,1005.09
2018-02-09T12:02:30.167Z,1005.1
2018-02-09T12:03:30.149Z,1005.09
2018-02-09T12:04:30.165Z,1005.06
2018-02-09T12:05:30.112Z,1005.09
2018-02-09T12:06:30.093Z,1005.09
2018-02-09T12:07:30.075Z,1005.13